Time;durP1;ratioP1;P1;durP2;ratioP2;P2;SDS_P1;SDS_P2;PMS_P1;PMS_P2;Temp;Humidity;BMP_temperature;BMP_pressure;BME280_temperature;BME280_humidity;BME280_pressure;Samples;Min_cycle;Max_cycle;Signal;HPM_P1;HPM_P2
2023/10/30 00:01:08;;;;;;;;;;;;;;;29.33;25.35;97281.03;4898960;29;20331;-89
2023/10/30 00:03:34;;;;;;;;;;;;;;;29.42;25.59;97286.59;4893233;29;20246;-89
2023/10/30 00:06:00;;;;;;;;;;;;;;;29.73;25.01;97293.75;4897353;29;19924;-90
2023/10/30 00:08:26;;;;;;;;;;;;;;;29.99;24.36;97295.44;4882454;29;20412;-89
2023/10/30 00:10:52;;;;;;;;;;;;;;;30.00;24.33;97291.34;4886335;29;20014;-90
2023/10/30 00:13:18;;;;;;;;;;;;;;;29.71;24.50;97290.63;4881498;29;20018;-90
2023/10/30 00:15:44;;;;;;;;;;;;;;;29.47;24.88;97282.28;4887333;29;20027;-89
2023/10/30 00:18:10;;;;;;;;;;;;;;;29.57;24.91;97282.97;4895168;29;20022;-89
2023/10/30 00:20:37;;;;;;;;;;;;;;;29.61;24.67;97287.13;4891995;29;19947;-89
2023/10/30 00:23:03;;;;;;;;;;;;;;;29.61;24.81;97280.69;4890730;29;20006;-89
2023/10/30 00:25:29;;;;;;;;;;;;;;;29.38;25.70;97282.41;4888956;29;19926;-89
2023/10/30 00:27:59;;;;;;;;;;;;;;;29.26;25.45;97286.31;4889894;29;19924;-89
2023/10/30 00:30:26;;;;;;;;;;;;;;;29.59;25.20;97288.91;4889403;29;20075;-89
2023/10/30 00:32:52;;;;;;;;;;;;;;;29.84;24.87;97291.91;4886521;29;19928;-89
2023/10/30 00:35:18;;;;;;;;;;;;;;;29.99;24.30;97286.19;4891538;29;19923;-89
2023/10/30 00:37:44;;;;;;;;;;;;;;;29.93;24.79;97282.50;4890957;29;20450;-89
2023/10/30 00:40:11;;;;;;;;;;;;;;;29.84;24.43;97288.28;4882690;29;19971;-89
2023/10/30 00:42:37;;;;;;;;;;;;;;;29.68;24.69;97281.06;4892007;29;19927;-89
2023/10/30 00:45:04;;;;;;;;;;;;;;;29.48;24.88;97280.25;4898935;29;20342;-89
2023/10/30 00:47:30;;;;;;;;;;;;;;;29.59;24.84;97272.72;4891424;29;19980;-89
2023/10/30 00:49:56;;;;;;;;;;;;;;;29.57;24.61;97277.31;4889744;29;20334;-89
2023/10/30 00:52:22;;;;;;;;;;;;;;;29.61;24.64;97277.88;4889200;29;19924;-89
2023/10/30 00:54:48;;;;;;;;;;;;;;;29.54;25.00;97269.78;4885228;29;19924;-90
2023/10/30 00:57:14;;;;;;;;;;;;;;;29.71;24.82;97273.66;4892821;29;20304;-88
2023/10/30 00:59:40;;;;;;;;;;;;;;;29.95;24.76;97266.56;4890878;29;19974;-89
2023/10/30 01:02:06;;;;;;;;;;;;;;;30.09;24.71;97264.94;4889436;29;20018;-90
2023/10/30 01:04:32;;;;;;;;;;;;;;;29.97;24.73;97269.69;4887875;29;19923;-90
2023/10/30 01:06:58;;;;;;;;;;;;;;;30.13;24.29;97268.34;4887186;29;19946;-89
2023/10/30 01:09:24;;;;;;;;;;;;;;;30.13;24.75;97268.34;4886302;29;20410;-89
2023/10/30 01:11:50;;;;;;;;;;;;;;;29.85;24.63;97270.03;4896961;29;19931;-90
2023/10/30 01:14:16;;;;;;;;;;;;;;;29.28;25.45;97267.59;4893769;29;19920;-89
2023/10/30 01:16:43;;;;;;;;;;;;;;;29.24;25.61;97269.81;4875632;29;19924;-90
2023/10/30 01:19:08;;;;;;;;;;;;;;;29.51;25.39;97267.94;4887636;29;20296;-90
2023/10/30 01:21:35;;;;;;;;;;;;;;;29.67;24.67;97262.53;4891047;29;19920;-90
2023/10/30 01:24:01;;;;;;;;;;;;;;;29.97;24.58;97257.56;4891168;29;19934;-89
2023/10/30 01:26:27;;;;;;;;;;;;;;;30.20;24.39;97261.50;4894703;29;20425;-89
2023/10/30 01:28:53;;;;;;;;;;;;;;;30.19;24.37;97249.38;4894868;29;20402;-90
2023/10/30 01:31:19;;;;;;;;;;;;;;;30.33;24.07;97259.91;4897852;29;19927;-90
2023/10/30 01:33:45;;;;;;;;;;;;;;;30.40;24.32;97270.00;4882888;29;19934;-89
2023/10/30 01:36:12;;;;;;;;;;;;;;;30.05;24.90;97270.06;4888524;29;20010;-90
2023/10/30 01:38:38;;;;;;;;;;;;;;;29.84;25.22;97268.47;4886109;29;20010;-90
2023/10/30 01:41:05;;;;;;;;;;;;;;;30.03;24.90;97264.09;4887020;29;19931;-90
2023/10/30 01:43:31;;;;;;;;;;;;;;;30.24;24.28;97260.00;4893807;29;20398;-91
2023/10/30 01:45:58;;;;;;;;;;;;;;;30.38;24.42;97259.19;4886266;29;19920;-91
2023/10/30 01:48:25;;;;;;;;;;;;;;;30.44;23.97;97254.34;4891771;29;20376;-91
2023/10/30 01:50:51;;;;;;;;;;;;;;;30.49;23.86;97256.47;4885898;29;19970;-90
2023/10/30 01:53:20;;;;;;;;;;;;;;;30.55;23.21;97260.13;4890265;29;19934;-90
2023/10/30 01:55:47;;;;;;;;;;;;;;;30.51;23.27;97268.09;4879816;29;20018;-90
2023/10/30 01:58:14;;;;;;;;;;;;;;;30.35;23.39;97268.66;4893823;29;19924;-90
2023/10/30 02:00:40;;;;;;;;;;;;;;;30.29;23.73;97262.13;4888695;29;20376;-90
2023/10/30 02:03:06;;;;;;;;;;;;;;;30.35;23.46;97271.50;4893431;29;19978;-90
2023/10/30 02:05:32;;;;;;;;;;;;;;;30.07;23.67;97270.34;4897425;29;20436;-90
2023/10/30 02:07:58;;;;;;;;;;;;;;;29.75;23.99;97277.84;4894369;29;20023;-90
2023/10/30 02:10:24;;;;;;;;;;;;;;;29.59;23.80;97275.53;4888228;29;19924;-89
2023/10/30 02:12:50;;;;;;;;;;;;;;;29.17;24.57;97269.41;4892272;29;20311;-90
2023/10/30 02:15:16;;;;;;;;;;;;;;;29.28;24.32;97276.06;4887715;29;20021;-90
2023/10/30 02:17:43;;;;;;;;;;;;;;;29.54;24.57;97275.44;4888686;29;19971;-90
2023/10/30 02:20:13;;;;;;;;;;;;;;;29.29;24.46;97276.84;4886790;29;19980;-90
2023/10/30 02:22:39;;;;;;;;;;;;;;;29.09;24.96;97285.97;4884184;29;19926;-90
2023/10/30 02:25:07;;;;;;;;;;;;;;;29.18;24.81;97268.94;4895492;29;20357;-90
2023/10/30 02:27:33;;;;;;;;;;;;;;;29.28;24.82;97266.78;4877500;29;20402;-90
2023/10/30 02:29:59;;;;;;;;;;;;;;;29.12;25.17;97264.44;4880792;29;19969;-90
2023/10/30 02:32:26;;;;;;;;;;;;;;;29.31;24.91;97257.34;4891023;29;19972;-90
2023/10/30 02:34:52;;;;;;;;;;;;;;;29.49;24.74;97257.13;4879179;29;19946;-91
2023/10/30 02:37:18;;;;;;;;;;;;;;;29.40;25.09;97260.84;4893976;29;20400;-90
2023/10/30 02:39:44;;;;;;;;;;;;;;;29.21;25.47;97264.38;4890247;29;20329;-90
2023/10/30 02:42:10;;;;;;;;;;;;;;;29.34;25.41;97270.47;4885328;29;20022;-89
2023/10/30 02:44:36;;;;;;;;;;;;;;;29.65;24.35;97267.13;4893865;29;19980;-89
2023/10/30 02:47:03;;;;;;;;;;;;;;;29.92;24.27;97278.13;4891106;29;19919;-89
2023/10/30 02:49:29;;;;;;;;;;;;;;;30.04;24.29;97276.97;4890405;29;19930;-90
2023/10/30 02:51:55;;;;;;;;;;;;;;;29.99;24.20;97277.69;4883719;29;19924;-89
2023/10/30 02:54:21;;;;;;;;;;;;;;;29.75;24.33;97274.22;4882617;29;19923;-89
2023/10/30 02:56:47;;;;;;;;;;;;;;;29.39;25.14;97275.47;4872240;29;19923;-89
2023/10/30 02:59:13;;;;;;;;;;;;;;;29.04;25.35;97266.88;4873181;29;20269;-89
2023/10/30 03:01:39;;;;;;;;;;;;;;;29.13;25.37;97275.25;4891381;29;19939;-89
2023/10/30 03:04:05;;;;;;;;;;;;;;;29.20;25.01;97269.22;4893996;29;19935;-89
2023/10/30 03:06:31;;;;;;;;;;;;;;;29.19;24.92;97273.34;4887391;29;20002;-89
2023/10/30 03:08:58;;;;;;;;;;;;;;;29.00;25.20;97269.13;4891308;29;20158;-88
2023/10/30 03:11:24;;;;;;;;;;;;;;;29.16;25.16;97273.50;4894498;29;20369;-89
2023/10/30 03:13:50;;;;;;;;;;;;;;;29.13;25.62;97272.44;4877809;29;19955;-89
2023/10/30 03:16:17;;;;;;;;;;;;;;;29.14;25.33;97273.22;4889185;29;19955;-89
2023/10/30 03:18:43;;;;;;;;;;;;;;;29.36;25.20;97267.94;4898841;29;19954;-89
2023/10/30 03:21:09;;;;;;;;;;;;;;;29.24;25.69;97271.88;4890308;29;20407;-89
2023/10/30 03:23:35;;;;;;;;;;;;;;;29.12;26.00;97270.88;4900648;29;19924;-89
2023/10/30 03:26:01;;;;;;;;;;;;;;;29.15;25.93;97277.63;4892203;29;19955;-89
2023/10/30 03:28:27;;;;;;;;;;;;;;;29.19;25.78;97281.81;4889613;29;19931;-89
2023/10/30 03:30:53;;;;;;;;;;;;;;;29.07;25.95;97282.88;4897022;29;20002;-89
2023/10/30 03:33:20;;;;;;;;;;;;;;;28.85;26.64;97305.06;4882518;29;20523;-89
2023/10/30 03:35:46;;;;;;;;;;;;;;;28.77;26.96;97311.59;4885142;29;20010;-89
2023/10/30 03:38:14;;;;;;;;;;;;;;;28.87;26.87;97313.06;4888965;29;20076;-89
2023/10/30 03:40:40;;;;;;;;;;;;;;;29.36;26.07;97313.97;4890209;29;19923;-89
2023/10/30 03:43:06;;;;;;;;;;;;;;;29.62;24.75;97316.97;4898484;29;20289;-89
2023/10/30 03:45:32;;;;;;;;;;;;;;;29.73;24.40;97317.19;4889436;29;19987;-89
2023/10/30 03:47:58;;;;;;;;;;;;;;;29.83;24.16;97315.00;4894983;29;20056;-89
2023/10/30 03:50:24;;;;;;;;;;;;;;;29.83;24.29;97321.47;4885907;29;19924;-89
2023/10/30 03:52:51;;;;;;;;;;;;;;;29.77;24.64;97322.66;4891147;29;19931;-89
2023/10/30 03:55:17;;;;;;;;;;;;;;;29.55;24.60;97319.41;4885676;29;20417;-89
2023/10/30 03:57:45;;;;;;;;;;;;;;;29.27;25.52;97314.09;4880982;29;19924;-88
2023/10/30 04:00:11;;;;;;;;;;;;;;;29.12;25.55;97313.28;4893737;29;19924;-89
2023/10/30 04:02:38;;;;;;;;;;;;;;;29.22;25.77;97320.41;4886904;29;20146;-89
2023/10/30 04:05:04;;;;;;;;;;;;;;;29.36;25.40;97316.81;4894825;29;19946;-88
2023/10/30 04:07:30;;;;;;;;;;;;;;;29.54;25.46;97317.88;4893149;29;20448;-88
2023/10/30 04:09:56;;;;;;;;;;;;;;;29.76;24.16;97307.72;4894459;29;19931;-88
2023/10/30 04:12:22;;;;;;;;;;;;;;;29.18;25.55;97307.75;4873293;29;20402;-89
2023/10/30 04:14:48;;;;;;;;;;;;;;;28.84;25.90;97297.88;4886346;29;20402;-89
2023/10/30 04:17:14;;;;;;;;;;;;;;;28.94;25.85;97292.91;4887108;29;19924;-89
2023/10/30 04:19:40;;;;;;;;;;;;;;;28.53;26.61;97300.28;4878343;29;20320;-89
2023/10/30 04:22:06;;;;;;;;;;;;;;;28.47;27.05;97307.88;4887844;29;19930;-89
2023/10/30 04:24:32;;;;;;;;;;;;;;;28.95;25.73;97295.22;4884612;29;20375;-89
2023/10/30 04:26:58;;;;;;;;;;;;;;;29.24;25.31;97305.81;4889072;29;19930;-88
2023/10/30 04:29:25;;;;;;;;;;;;;;;28.93;25.79;97305.47;4891158;29;19923;-89
2023/10/30 04:31:50;;;;;;;;;;;;;;;28.83;26.02;97301.94;4885857;29;19975;-89
2023/10/30 04:34:18;;;;;;;;;;;;;;;29.01;25.64;97298.16;4893278;29;19928;-89
2023/10/30 04:36:44;;;;;;;;;;;;;;;29.25;25.81;97302.50;4885990;29;20000;-89
2023/10/30 04:39:10;;;;;;;;;;;;;;;29.46;25.66;97305.38;4887065;29;19976;-89
2023/10/30 04:41:36;;;;;;;;;;;;;;;29.69;25.68;97293.16;4895210;29;19923;-89
2023/10/30 04:44:03;;;;;;;;;;;;;;;29.69;25.26;97293.16;4893104;29;20070;-89
2023/10/30 04:46:30;;;;;;;;;;;;;;;29.57;25.68;97292.19;4888919;29;20018;-89
2023/10/30 04:48:56;;;;;;;;;;;;;;;29.49;26.07;97287.44;4889711;29;19949;-89
2023/10/30 04:51:22;;;;;;;;;;;;;;;29.54;25.62;97286.75;4894178;29;20439;-89
2023/10/30 04:53:48;;;;;;;;;;;;;;;29.70;25.59;97275.69;4889819;29;19928;-89
2023/10/30 04:56:14;;;;;;;;;;;;;;;29.37;25.85;97283.66;4889515;29;20007;-89
2023/10/30 04:58:40;;;;;;;;;;;;;;;29.45;25.89;97289.69;4885010;29;19996;-89
2023/10/30 05:01:08;;;;;;;;;;;;;;;29.33;26.46;97291.56;4891154;29;19930;-88
2023/10/30 05:03:37;;;;;;;;;;;;;;;29.29;26.54;97288.91;4896449;29;19955;-88
2023/10/30 05:06:04;;;;;;;;;;;;;;;29.47;26.22;97290.00;4889606;29;19930;-88
2023/10/30 05:08:30;;;;;;;;;;;;;;;29.77;25.91;97294.34;4883553;29;19919;-89
2023/10/30 05:10:58;;;;;;;;;;;;;;;29.83;25.84;97300.84;4884489;29;20308;-87
2023/10/30 05:13:24;;;;;;;;;;;;;;;29.89;25.61;97296.06;4894195;29;19938;-90
2023/10/30 05:15:50;;;;;;;;;;;;;;;30.00;25.92;97297.00;4894211;29;20006;-91
2023/10/30 05:18:22;;;;;;;;;;;;;;;30.13;24.96;97293.81;4877531;29;20010;-91
2023/10/30 05:20:48;;;;;;;;;;;;;;;30.27;24.52;97297.91;4896648;29;19994;-93
2023/10/30 05:23:14;;;;;;;;;;;;;;;30.19;24.81;97308.06;4903071;29;19971;-93
2023/10/30 05:25:40;;;;;;;;;;;;;;;30.16;24.99;97315.50;4890637;29;19928;-92
2023/10/30 05:28:06;;;;;;;;;;;;;;;29.94;25.72;97315.19;4893487;29;19924;-90
2023/10/30 05:30:33;;;;;;;;;;;;;;;29.75;25.85;97325.94;4884651;29;19931;-89
2023/10/30 05:32:59;;;;;;;;;;;;;;;30.03;25.06;97326.41;4888438;29;19938;-93
2023/10/30 05:35:25;;;;;;;;;;;;;;;30.23;24.73;97332.06;4886785;29;20030;-91
2023/10/30 05:37:51;;;;;;;;;;;;;;;30.04;24.60;97342.09;4892256;29;19919;-88
2023/10/30 05:40:18;;;;;;;;;;;;;;;30.23;24.39;97342.63;4881064;29;20307;-87
2023/10/30 05:42:44;;;;;;;;;;;;;;;30.37;24.06;97348.25;4884481;29;19924;-89
2023/10/30 05:45:10;;;;;;;;;;;;;;;29.97;24.39;97360.28;4886825;29;20023;-89
2023/10/30 05:47:36;;;;;;;;;;;;;;;29.81;24.95;97357.97;4886460;29;20010;-88
2023/10/30 05:50:02;;;;;;;;;;;;;;;29.88;25.47;97363.22;4868876;29;21608;-89
2023/10/30 05:52:29;;;;;;;;;;;;;;;30.07;25.21;97375.88;4887835;29;19967;-89
2023/10/30 05:54:55;;;;;;;;;;;;;;;30.35;25.08;97367.03;4889873;29;19923;-88
2023/10/30 05:57:21;;;;;;;;;;;;;;;30.61;24.34;97367.91;4892159;29;19923;-88
2023/10/30 05:59:47;;;;;;;;;;;;;;;30.30;23.76;97382.63;4885606;23;20420;-89
2023/10/30 06:02:15;;;;;;;;;;;;;;;29.71;25.11;97369.88;4872116;29;19931;-89
2023/10/30 06:04:41;;;;;;;;;;;;;;;29.82;25.21;97376.53;4876660;29;19983;-89
2023/10/30 06:07:07;;;;;;;;;;;;;;;30.00;24.88;97378.31;4876105;29;19923;-89
2023/10/30 06:09:33;;;;;;;;;;;;;;;29.96;25.04;97377.75;4877055;29;19935;-89
2023/10/30 06:11:59;;;;;;;;;;;;;;;30.09;25.12;97381.03;4876820;29;20428;-89
2023/10/30 06:14:25;;;;;;;;;;;;;;;30.37;25.01;97379.44;4877408;29;20027;-89
2023/10/30 06:16:51;;;;;;;;;;;;;;;30.64;24.81;97395.25;4876798;29;20022;-89
2023/10/30 06:19:17;;;;;;;;;;;;;;;30.80;24.08;97389.03;4877929;29;19950;-89
2023/10/30 06:21:43;;;;;;;;;;;;;;;30.49;24.29;97398.13;4876867;29;20393;-89
2023/10/30 06:24:09;;;;;;;;;;;;;;;30.54;24.65;97396.66;4878538;29;19967;-89
2023/10/30 06:26:38;;;;;;;;;;;;;;;30.82;24.37;97394.19;4878171;29;19967;-89
2023/10/30 06:29:04;;;;;;;;;;;;;;;31.00;24.64;97403.19;4874922;29;20292;-89
2023/10/30 06:31:30;;;;;;;;;;;;;;;30.80;24.66;97396.75;4878480;29;19924;-89
2023/10/30 06:33:56;;;;;;;;;;;;;;;30.92;24.82;97390.75;4874771;29;19930;-89
2023/10/30 06:36:22;;;;;;;;;;;;;;;31.15;24.64;97389.72;4870858;29;19923;-90
2023/10/30 06:38:48;;;;;;;;;;;;;;;31.32;23.89;97393.50;4875532;29;20400;-89
2023/10/30 06:41:14;;;;;;;;;;;;;;;31.32;24.11;97401.25;4874747;29;19930;-89
2023/10/30 06:43:40;;;;;;;;;;;;;;;31.12;24.17;97406.94;4878831;29;19924;-89
2023/10/30 06:46:08;;;;;;;;;;;;;;;30.97;24.27;97407.03;4879177;29;19924;-89
2023/10/30 06:48:34;;;;;;;;;;;;;;;30.74;24.24;97405.16;4879879;29;19928;-89
2023/10/30 06:51:00;;;;;;;;;;;;;;;30.34;24.95;97417.22;4873184;29;19930;-89
2023/10/30 06:53:26;;;;;;;;;;;;;;;30.04;25.76;97408.00;4869620;29;19927;-90
2023/10/30 06:55:52;;;;;;;;;;;;;;;30.25;25.35;97414.50;4879033;29;19930;-89
2023/10/30 06:58:18;;;;;;;;;;;;;;;30.69;24.91;97414.41;4873284;29;21417;-90
2023/10/30 07:00:45;;;;;;;;;;;;;;;30.70;24.73;97415.94;4882726;29;19966;-90
2023/10/30 07:03:11;;;;;;;;;;;;;;;30.75;24.89;97415.22;4881566;29;19923;-90
2023/10/30 07:05:37;;;;;;;;;;;;;;;30.76;25.29;97420.41;4865242;29;19942;-89
2023/10/30 07:08:03;;;;;;;;;;;;;;;31.02;25.15;97425.38;4880650;29;19966;-90
2023/10/30 07:10:29;;;;;;;;;;;;;;;31.29;24.50;97427.78;4879876;29;19946;-90
2023/10/30 07:12:55;;;;;;;;;;;;;;;31.46;24.46;97419.47;4881263;29;19967;-89
2023/10/30 07:15:21;;;;;;;;;;;;;;;31.01;25.59;97421.00;4881413;29;19927;-90
2023/10/30 07:17:48;;;;;;;;;;;;;;;31.00;25.27;97423.06;4884330;29;19930;-89
2023/10/30 07:20:14;;;;;;;;;;;;;;;31.25;25.03;97419.47;4864397;29;19919;-89
2023/10/30 07:22:40;;;;;;;;;;;;;;;31.29;25.50;97422.09;4881665;29;19923;-90
2023/10/30 07:25:06;;;;;;;;;;;;;;;31.48;25.28;97416.91;4881125;29;19919;-90
2023/10/30 07:27:33;;;;;;;;;;;;;;;31.40;25.35;97410.88;4879665;29;20396;-90
2023/10/30 07:29:59;;;;;;;;;;;;;;;31.28;25.27;97398.63;4879412;29;20311;-90
2023/10/30 07:32:25;;;;;;;;;;;;;;;30.91;25.73;97403.34;4874458;29;19920;-90
2023/10/30 07:34:51;;;;;;;;;;;;;;;31.06;25.64;97404.06;4865624;29;19928;-89
2023/10/30 07:37:17;;;;;;;;;;;;;;;31.36;25.34;97404.63;4877431;29;20401;-90
2023/10/30 07:39:44;;;;;;;;;;;;;;;31.36;25.60;97393.28;4881801;29;19923;-89
2023/10/30 07:42:10;;;;;;;;;;;;;;;31.62;25.39;97399.00;4881789;29;20392;-90
2023/10/30 07:44:36;;;;;;;;;;;;;;;31.59;24.91;97406.44;4881615;29;19924;-90
2023/10/30 07:47:03;;;;;;;;;;;;;;;31.49;25.66;97402.22;4875613;29;19924;-89
2023/10/30 07:49:29;;;;;;;;;;;;;;;31.48;26.42;97405.56;4880961;29;19924;-89
2023/10/30 07:51:55;;;;;;;;;;;;;;;31.68;26.64;97408.31;4881946;29;19919;-89
2023/10/30 07:54:22;;;;;;;;;;;;;;;32.03;26.11;97398.34;4881038;29;20387;-89
2023/10/30 07:56:48;;;;;;;;;;;;;;;31.86;26.10;97397.38;4870629;29;20022;-89
2023/10/30 07:59:14;;;;;;;;;;;;;;;32.05;25.59;97404.28;4881286;29;19934;-89
2023/10/30 08:01:40;;;;;;;;;;;;;;;31.92;25.61;97403.91;4881092;29;19924;-89
2023/10/30 08:04:09;;;;;;;;;;;;;;;31.28;26.78;97407.13;4880639;29;19949;-89
2023/10/30 08:06:35;;;;;;;;;;;;;;;31.41;26.54;97410.34;4881137;29;20385;-89
2023/10/30 08:09:01;;;;;;;;;;;;;;;31.78;26.35;97401.97;4881188;29;19927;-89
2023/10/30 08:11:28;;;;;;;;;;;;;;;32.08;26.10;97399.66;4879723;29;19924;-89
2023/10/30 08:13:54;;;;;;;;;;;;;;;32.28;26.53;97398.78;4864668;29;20006;-89
2023/10/30 08:16:20;;;;;;;;;;;;;;;32.54;25.88;97405.16;4880869;29;20015;-89
2023/10/30 08:18:46;;;;;;;;;;;;;;;32.80;26.18;97405.81;4880693;29;19923;-89
2023/10/30 08:21:13;;;;;;;;;;;;;;;33.04;25.56;97416.81;4880720;29;19980;-89
2023/10/30 08:23:39;;;;;;;;;;;;;;;33.13;25.80;97410.88;4880908;29;20389;-89
2023/10/30 08:26:06;;;;;;;;;;;;;;;33.18;26.59;97407.28;4881153;29;19983;-89
2023/10/30 08:28:32;;;;;;;;;;;;;;;33.23;25.02;97407.31;4886358;29;19927;-89
2023/10/30 08:30:58;;;;;;;;;;;;;;;33.63;25.56;97402.50;4863836;29;19983;-89
2023/10/30 08:33:24;;;;;;;;;;;;;;;34.02;25.21;97392.69;4880839;29;19928;-89
2023/10/30 08:35:50;;;;;;;;;;;;;;;34.25;25.09;97402.00;4863409;29;19924;-89
2023/10/30 08:38:16;;;;;;;;;;;;;;;34.54;24.67;97406.41;4880747;29;20011;-89
2023/10/30 08:40:42;;;;;;;;;;;;;;;34.70;25.35;97400.63;4873774;29;20365;-89
2023/10/30 08:43:08;;;;;;;;;;;;;;;34.88;25.26;97407.06;4879681;29;19987;-89
2023/10/30 08:45:34;;;;;;;;;;;;;;;34.74;23.91;97409.72;4880021;29;19927;-89
2023/10/30 08:48:01;;;;;;;;;;;;;;;34.79;25.15;97421.63;4880495;29;19935;-89
2023/10/30 08:50:27;;;;;;;;;;;;;;;34.82;25.57;97423.44;4880009;29;19971;-89
2023/10/30 08:52:53;;;;;;;;;;;;;;;34.94;24.96;97425.69;4863710;29;20014;-89
2023/10/30 08:55:19;;;;;;;;;;;;;;;35.09;25.48;97416.84;4880343;29;19924;-89
2023/10/30 08:57:45;;;;;;;;;;;;;;;35.23;25.50;97421.47;4880520;29;19915;-89
2023/10/30 09:00:12;;;;;;;;;;;;;;;35.23;26.01;97419.38;4880286;29;19931;-88
2023/10/30 09:02:38;;;;;;;;;;;;;;;35.34;25.61;97422.19;4887408;29;20376;-89
2023/10/30 09:05:05;;;;;;;;;;;;;;;35.42;25.35;97430.97;4881028;29;19927;-89
2023/10/30 09:07:31;;;;;;;;;;;;;;;35.52;25.94;97437.19;4880590;29;20011;-88
2023/10/30 09:09:58;;;;;;;;;;;;;;;35.51;25.79;97444.19;4880818;29;20386;-89
2023/10/30 09:12:24;;;;;;;;;;;;;;;35.29;24.12;97436.47;4876230;29;19924;-89
2023/10/30 09:14:50;;;;;;;;;;;;;;;35.26;25.57;97432.63;4877680;29;20388;-88
2023/10/30 09:17:16;;;;;;;;;;;;;;;35.29;24.59;97427.91;4880283;29;20391;-89
2023/10/30 09:19:42;;;;;;;;;;;;;;;35.21;25.35;97433.41;4880377;29;20032;-88
2023/10/30 09:22:08;;;;;;;;;;;;;;;35.40;24.26;97442.91;4880807;29;19963;-89
2023/10/30 09:24:34;;;;;;;;;;;;;;;35.57;23.90;97451.41;4880376;29;19955;-89
2023/10/30 09:27:00;;;;;;;;;;;;;;;35.72;24.78;97463.28;4880175;29;20380;-88
2023/10/30 09:29:26;;;;;;;;;;;;;;;35.74;25.04;97460.66;4863804;29;19928;-89
2023/10/30 09:31:52;;;;;;;;;;;;;;;35.61;24.54;97439.72;4861796;29;20282;-89
2023/10/30 09:34:18;;;;;;;;;;;;;;;34.97;26.28;97432.44;4861586;29;19920;-89
2023/10/30 09:36:44;;;;;;;;;;;;;;;34.57;26.74;97431.78;4872038;29;19923;-89
2023/10/30 09:39:12;;;;;;;;;;;;;;;34.70;27.77;97443.41;4880629;29;19955;-89
2023/10/30 09:41:43;;;;;;;;;;;;;;;35.22;25.88;97445.59;4880036;29;19959;-89
2023/10/30 09:44:10;;;;;;;;;;;;;;;35.29;24.46;97442.19;4876345;29;19995;-89
2023/10/30 09:46:39;;;;;;;;;;;;;;;35.39;24.10;97447.06;4885563;29;19927;-89
2023/10/30 09:49:06;;;;;;;;;;;;;;;35.34;23.47;97450.72;4887773;29;20060;-89
2023/10/30 09:51:32;;;;;;;;;;;;;;;35.22;23.26;97454.16;4876665;29;20396;-89
2023/10/30 09:53:59;;;;;;;;;;;;;;;35.42;23.77;97451.75;4878845;29;19927;-88
2023/10/30 09:56:26;;;;;;;;;;;;;;;35.78;24.35;97446.84;4880147;29;20304;-88
2023/10/30 09:58:52;;;;;;;;;;;;;;;35.81;22.88;97442.16;4879462;29;19938;-89
2023/10/30 10:01:19;;;;;;;;;;;;;;;35.79;24.53;97444.78;4879964;29;20018;-89
2023/10/30 10:03:45;;;;;;;;;;;;;;;35.76;23.94;97449.47;4879492;29;19931;-88
2023/10/30 10:06:11;;;;;;;;;;;;;;;35.94;23.96;97448.06;4879876;29;19924;-89
2023/10/30 10:08:38;;;;;;;;;;;;;;;36.03;23.44;97445.69;4878507;29;20445;-89
2023/10/30 10:11:05;;;;;;;;;;;;;;;35.84;24.72;97436.19;4879445;29;19920;-89
2023/10/30 10:13:33;;;;;;;;;;;;;;;35.80;21.68;97432.06;4882480;29;19955;-89
2023/10/30 10:16:02;;;;;;;;;;;;;;;35.61;22.37;97429.06;4882907;29;19971;-89
2023/10/30 10:18:32;;;;;;;;;;;;;;;35.86;22.62;97416.44;4883541;29;19920;-89
2023/10/30 10:20:59;;;;;;;;;;;;;;;36.08;22.02;97413.41;4886098;29;19955;-89
2023/10/30 10:23:33;;;;;;;;;;;;;;;36.14;22.00;97415.44;4885986;29;19924;-89
2023/10/30 10:26:00;;;;;;;;;;;;;;;35.93;22.52;97413.00;4866752;29;20385;-89
2023/10/30 10:28:26;;;;;;;;;;;;;;;36.16;22.51;97421.41;4879210;29;19927;-89
2023/10/30 10:30:53;;;;;;;;;;;;;;;36.42;21.78;97430.25;4883084;29;19938;-87
2023/10/30 10:33:20;;;;;;;;;;;;;;;36.59;23.44;97445.22;4883034;29;20404;-87
2023/10/30 10:35:47;;;;;;;;;;;;;;;36.72;23.26;97436.75;4883259;29;19920;-87
2023/10/30 10:38:16;;;;;;;;;;;;;;;36.85;23.60;97436.88;4883252;29;19927;-87
2023/10/30 10:40:43;;;;;;;;;;;;;;;36.96;24.33;97436.75;4883187;29;20392;-87
2023/10/30 10:43:09;;;;;;;;;;;;;;;36.97;23.97;97435.44;4881456;29;19927;-87
2023/10/30 10:45:36;;;;;;;;;;;;;;;36.97;23.29;97438.28;4879325;29;19931;-86
2023/10/30 10:48:02;;;;;;;;;;;;;;;36.92;24.04;97442.03;4881387;29;19921;-87
2023/10/30 10:50:28;;;;;;;;;;;;;;;36.94;22.52;97439.41;4873669;29;19931;-86
2023/10/30 10:52:55;;;;;;;;;;;;;;;36.72;21.35;97440.38;4879882;29;19920;-86
2023/10/30 10:55:27;;;;;;;;;;;;;;;36.37;22.50;97433.94;4863073;29;20404;-87
2023/10/30 10:57:58;;;;;;;;;;;;;;;35.98;21.35;97432.22;4873360;29;19920;-86
2023/10/30 11:00:28;;;;;;;;;;;;;;;36.32;23.23;97426.19;4871843;29;20392;-86
2023/10/30 11:02:57;;;;;;;;;;;;;;;36.72;21.95;97426.06;4874011;29;20087;-87
2023/10/30 11:05:29;;;;;;;;;;;;;;;37.06;21.84;97423.59;4884974;29;20394;-86
2023/10/30 11:08:02;;;;;;;;;;;;;;;36.54;22.50;97420.28;4880495;29;19924;-86
2023/10/30 11:10:33;;;;;;;;;;;;;;;36.55;22.07;97422.59;4881390;29;19924;-86
2023/10/30 11:13:16;;;;;;;;;;;;;;;36.88;23.24;97424.31;4869561;29;19930;-85
2023/10/30 11:15:51;;;;;;;;;;;;;;;37.22;22.81;97421.88;4872907;29;19935;-88
2023/10/30 11:18:20;;;;;;;;;;;;;;;37.45;21.27;97422.38;4861500;29;20507;-87
2023/10/30 11:20:46;;;;;;;;;;;;;;;37.12;20.83;97409.25;4878057;29;20018;-87
2023/10/30 11:23:12;;;;;;;;;;;;;;;36.94;21.90;97421.44;4888446;29;19932;-87
2023/10/30 11:25:50;;;;;;;;;;;;;;;36.68;22.79;97416.25;4900325;29;19919;-87
2023/10/30 11:28:16;;;;;;;;;;;;;;;36.89;23.02;97423.03;4865558;29;20015;-87
2023/10/30 11:30:43;;;;;;;;;;;;;;;37.12;21.98;97427.19;4862512;29;19960;-87
2023/10/30 11:33:19;;;;;;;;;;;;;;;37.41;21.91;97408.38;4863502;29;19921;-87
2023/10/30 11:35:50;;;;;;;;;;;;;;;37.61;20.72;97407.81;4874421;29;19959;-87
2023/10/30 11:38:18;;;;;;;;;;;;;;;37.65;21.01;97402.53;4888657;29;19919;-87
2023/10/30 11:40:59;;;;;;;;;;;;;;;37.63;21.17;97404.38;4899288;29;19924;-87
2023/10/30 11:43:29;;;;;;;;;;;;;;;37.59;20.83;97398.19;4900343;29;19924;-87
2023/10/30 11:46:00;;;;;;;;;;;;;;;37.71;19.82;97405.31;4900728;29;19919;-87
2023/10/30 11:48:27;;;;;;;;;;;;;;;37.17;19.89;97394.84;4900777;29;19919;-87
2023/10/30 11:50:54;;;;;;;;;;;;;;;37.06;20.84;97403.56;4900700;29;20269;-87
2023/10/30 11:53:21;;;;;;;;;;;;;;;37.11;20.39;97394.13;4885020;29;19949;-87
2023/10/30 11:55:50;;;;;;;;;;;;;;;36.94;19.81;97399.31;4882534;29;19959;-87
2023/10/30 11:58:18;;;;;;;;;;;;;;;36.53;21.44;97396.63;4881765;29;19919;-87
2023/10/30 12:00:45;;;;;;;;;;;;;;;36.85;20.40;97391.09;4887325;29;19934;-87
2023/10/30 12:03:11;;;;;;;;;;;;;;;36.64;20.71;97384.31;4890777;29;19928;-87
2023/10/30 12:05:37;;;;;;;;;;;;;;;35.94;21.62;97383.09;4881275;29;20010;-87
2023/10/30 12:08:04;;;;;;;;;;;;;;;35.67;22.08;97375.53;4881815;29;19932;-87
2023/10/30 12:10:31;;;;;;;;;;;;;;;34.72;22.36;97391.56;4883372;29;19924;-87
2023/10/30 12:12:57;;;;;;;;;;;;;;;35.13;22.18;97391.66;4896375;29;19962;-87
2023/10/30 12:15:25;;;;;;;;;;;;;;;35.53;22.78;97375.88;4900031;29;19979;-87
2023/10/30 12:17:51;;;;;;;;;;;;;;;36.01;21.55;97370.34;4871620;29;19924;-87
2023/10/30 12:20:17;;;;;;;;;;;;;;;35.64;21.60;97372.97;4870919;29;19924;-87
2023/10/30 12:22:43;;;;;;;;;;;;;;;33.30;24.06;97364.09;4881380;29;19924;-87
2023/10/30 12:25:16;;;;;;;;;;;;;;;33.78;23.78;97358.22;4877795;29;20450;-87
2023/10/30 12:27:42;;;;;;;;;;;;;;;33.80;24.10;97361.34;4880787;29;19930;-87
2023/10/30 12:30:09;;;;;;;;;;;;;;;34.63;24.72;97355.56;4882017;29;19928;-87
2023/10/30 12:32:35;;;;;;;;;;;;;;;35.78;21.79;97348.97;4885167;29;19980;-87
2023/10/30 12:35:11;;;;;;;;;;;;;;;36.29;21.82;97341.50;4878724;29;19920;-87
2023/10/30 12:37:38;;;;;;;;;;;;;;;36.29;23.01;97344.34;4880415;29;20327;-87
2023/10/30 12:40:09;;;;;;;;;;;;;;;36.49;20.42;97349.63;4881101;29;20400;-87
2023/10/30 12:42:36;;;;;;;;;;;;;;;36.70;21.26;97344.94;4880980;29;19925;-87
2023/10/30 12:45:09;;;;;;;;;;;;;;;36.92;21.09;97349.66;4881121;29;19923;-87